sensor_id;sensor_type;location;lat;lon;timestamp;pressure;altitude;pressure_sealevel;temperature;humidity
55990;BME280;41875;55.806;38.082;2023-02-28T00:01:43;99752.97;;;-4.78;60.75
55990;BME280;41875;55.806;38.082;2023-02-28T00:04:11;99748.91;;;-4.85;60.65
55990;BME280;41875;55.806;38.082;2023-02-28T00:06:40;99751.34;;;-5.06;61.34
55990;BME280;41875;55.806;38.082;2023-02-28T00:09:10;99747.91;;;-4.81;60.15
55990;BME280;41875;55.806;38.082;2023-02-28T00:11:38;99739.72;;;-4.69;59.87
55990;BME280;41875;55.806;38.082;2023-02-28T00:14:07;99743.81;;;-4.87;60.01
55990;BME280;41875;55.806;38.082;2023-02-28T00:16:35;99743.38;;;-4.75;59.42
55990;BME280;41875;55.806;38.082;2023-02-28T00:19:04;99730.41;;;-4.98;60.40
55990;BME280;41875;55.806;38.082;2023-02-28T00:21:32;99733.31;;;-4.82;59.69
55990;BME280;41875;55.806;38.082;2023-02-28T00:24:02;99729.97;;;-5.10;60.07
55990;BME280;41875;55.806;38.082;2023-02-28T00:26:32;99725.56;;;-4.82;59.73
55990;BME280;41875;55.806;38.082;2023-02-28T00:29:01;99721.63;;;-4.69;59.46
55990;BME280;41875;55.806;38.082;2023-02-28T00:31:29;99721.91;;;-4.77;59.27
55990;BME280;41875;55.806;38.082;2023-02-28T00:33:58;99723.19;;;-4.88;59.44
55990;BME280;41875;55.806;38.082;2023-02-28T00:36:27;99718.97;;;-4.67;58.74
55990;BME280;41875;55.806;38.082;2023-02-28T00:38:55;99706.06;;;-4.91;59.64
55990;BME280;41875;55.806;38.082;2023-02-28T00:41:27;99708.47;;;-5.10;59.72
55990;BME280;41875;55.806;38.082;2023-02-28T00:43:57;99707.31;;;-5.27;60.11
55990;BME280;41875;55.806;38.082;2023-02-28T00:46:26;99698.59;;;-5.23;60.42
55990;BME280;41875;55.806;38.082;2023-02-28T00:48:57;99694.31;;;-5.24;60.11
55990;BME280;41875;55.806;38.082;2023-02-28T00:51:26;99693.97;;;-5.14;60.16
55990;BME280;41875;55.806;38.082;2023-02-28T00:53:57;99698.63;;;-5.49;60.61
55990;BME280;41875;55.806;38.082;2023-02-28T00:56:25;99690.41;;;-5.36;60.09
55990;BME280;41875;55.806;38.082;2023-02-28T00:58:53;99678.19;;;-5.07;60.10
55990;BME280;41875;55.806;38.082;2023-02-28T01:01:24;99684.03;;;-5.51;60.20
55990;BME280;41875;55.806;38.082;2023-02-28T01:03:53;99673.56;;;-5.46;60.13
55990;BME280;41875;55.806;38.082;2023-02-28T01:06:21;99674.47;;;-5.47;60.75
55990;BME280;41875;55.806;38.082;2023-02-28T01:08:50;99664.44;;;-5.31;60.13
55990;BME280;41875;55.806;38.082;2023-02-28T01:11:18;99669.97;;;-5.92;60.92
55990;BME280;41875;55.806;38.082;2023-02-28T01:13:48;99657.81;;;-5.89;61.56
55990;BME280;41875;55.806;38.082;2023-02-28T01:16:16;99653.91;;;-6.01;61.39
55990;BME280;41875;55.806;38.082;2023-02-28T01:18:46;99648.75;;;-5.50;60.41
55990;BME280;41875;55.806;38.082;2023-02-28T01:21:18;99633.47;;;-5.56;60.66
55990;BME280;41875;55.806;38.082;2023-02-28T01:23:48;99630.06;;;-5.82;61.07
55990;BME280;41875;55.806;38.082;2023-02-28T01:26:20;99625.69;;;-6.05;61.63
55990;BME280;41875;55.806;38.082;2023-02-28T01:28:50;99618.28;;;-6.15;62.13
55990;BME280;41875;55.806;38.082;2023-02-28T01:31:19;99620.19;;;-5.96;61.70
55990;BME280;41875;55.806;38.082;2023-02-28T01:33:50;99628.47;;;-6.12;62.04
55990;BME280;41875;55.806;38.082;2023-02-28T01:36:20;99613.53;;;-5.76;61.08
55990;BME280;41875;55.806;38.082;2023-02-28T01:38:50;99614.09;;;-5.68;60.95
55990;BME280;41875;55.806;38.082;2023-02-28T01:41:22;99609.97;;;-5.74;60.40
55990;BME280;41875;55.806;38.082;2023-02-28T01:43:59;99600.06;;;-5.85;60.50
55990;BME280;41875;55.806;38.082;2023-02-28T01:46:30;99604.28;;;-6.07;60.94
55990;BME280;41875;55.806;38.082;2023-02-28T01:49:05;99592.88;;;-6.27;62.11
55990;BME280;41875;55.806;38.082;2023-02-28T01:51:38;99585.66;;;-6.16;61.54
55990;BME280;41875;55.806;38.082;2023-02-28T01:54:16;99579.69;;;-6.18;61.60
55990;BME280;41875;55.806;38.082;2023-02-28T01:56:48;99580.59;;;-5.95;61.10
55990;BME280;41875;55.806;38.082;2023-02-28T01:59:22;99572.31;;;-5.78;60.15
55990;BME280;41875;55.806;38.082;2023-02-28T02:01:53;99564.34;;;-5.97;60.70
55990;BME280;41875;55.806;38.082;2023-02-28T02:04:27;99553.75;;;-5.89;60.31
55990;BME280;41875;55.806;38.082;2023-02-28T02:06:59;99558.78;;;-5.85;59.70
55990;BME280;41875;55.806;38.082;2023-02-28T02:09:28;99555.69;;;-5.71;59.41
55990;BME280;41875;55.806;38.082;2023-02-28T02:11:56;99553.69;;;-6.12;59.94
55990;BME280;41875;55.806;38.082;2023-02-28T02:14:40;99557.16;;;-5.63;59.42
55990;BME280;41875;55.806;38.082;2023-02-28T02:17:21;99550.34;;;-6.14;59.69
55990;BME280;41875;55.806;38.082;2023-02-28T02:23:28;99552.69;;;-6.33;61.18
55990;BME280;41875;55.806;38.082;2023-02-28T02:26:14;99543.69;;;-6.73;61.84
55990;BME280;41875;55.806;38.082;2023-02-28T02:28:59;99541.66;;;-6.63;61.89
55990;BME280;41875;55.806;38.082;2023-02-28T02:34:43;99521.97;;;-6.39;61.66
55990;BME280;41875;55.806;38.082;2023-02-28T02:37:26;99526.78;;;-7.10;63.46
55990;BME280;41875;55.806;38.082;2023-02-28T02:40:04;99521.22;;;-6.69;62.32
55990;BME280;41875;55.806;38.082;2023-02-28T02:42:40;99519.09;;;-6.56;62.11
55990;BME280;41875;55.806;38.082;2023-02-28T02:45:12;99515.09;;;-6.65;62.11
55990;BME280;41875;55.806;38.082;2023-02-28T02:47:45;99515.19;;;-6.68;62.12
55990;BME280;41875;55.806;38.082;2023-02-28T02:50:19;99489.66;;;-6.49;62.11
55990;BME280;41875;55.806;38.082;2023-02-28T02:52:53;99495.84;;;-6.55;61.58
55990;BME280;41875;55.806;38.082;2023-02-28T02:55:24;99503.69;;;-6.85;62.10
55990;BME280;41875;55.806;38.082;2023-02-28T02:57:55;99490.06;;;-6.62;61.79
55990;BME280;41875;55.806;38.082;2023-02-28T03:00:29;99500.06;;;-7.06;62.77
55990;BME280;41875;55.806;38.082;2023-02-28T03:03:01;99495.88;;;-6.82;62.41
55990;BME280;41875;55.806;38.082;2023-02-28T03:05:35;99485.56;;;-6.82;62.36
55990;BME280;41875;55.806;38.082;2023-02-28T03:08:07;99485.00;;;-6.65;62.44
55990;BME280;41875;55.806;38.082;2023-02-28T03:10:37;99479.09;;;-6.67;62.42
55990;BME280;41875;55.806;38.082;2023-02-28T03:13:13;99474.03;;;-6.70;62.53
55990;BME280;41875;55.806;38.082;2023-02-28T03:15:58;99473.50;;;-7.08;63.89
55990;BME280;41875;55.806;38.082;2023-02-28T03:18:40;99462.22;;;-6.77;63.10
55990;BME280;41875;55.806;38.082;2023-02-28T03:21:20;99469.63;;;-6.93;63.35
55990;BME280;41875;55.806;38.082;2023-02-28T03:23:59;99453.50;;;-6.73;62.90
55990;BME280;41875;55.806;38.082;2023-02-28T03:26:34;99447.78;;;-6.81;62.90
55990;BME280;41875;55.806;38.082;2023-02-28T03:29:09;99443.16;;;-6.98;63.26
55990;BME280;41875;55.806;38.082;2023-02-28T03:31:48;99428.03;;;-6.55;62.10
55990;BME280;41875;55.806;38.082;2023-02-28T03:34:24;99432.38;;;-6.32;61.81
55990;BME280;41875;55.806;38.082;2023-02-28T03:36:57;99432.53;;;-7.14;63.11
55990;BME280;41875;55.806;38.082;2023-02-28T03:39:34;99431.75;;;-7.18;63.94
55990;BME280;41875;55.806;38.082;2023-02-28T03:42:08;99419.50;;;-7.10;64.01
55990;BME280;41875;55.806;38.082;2023-02-28T03:44:40;99409.53;;;-6.94;63.00
55990;BME280;41875;55.806;38.082;2023-02-28T03:47:12;99403.81;;;-7.02;63.27
55990;BME280;41875;55.806;38.082;2023-02-28T03:49:46;99396.34;;;-7.10;63.79
55990;BME280;41875;55.806;38.082;2023-02-28T03:52:18;99406.44;;;-6.78;62.57
55990;BME280;41875;55.806;38.082;2023-02-28T03:54:52;99413.94;;;-6.97;63.12
55990;BME280;41875;55.806;38.082;2023-02-28T03:58:04;99391.31;;;-6.87;63.16
55990;BME280;41875;55.806;38.082;2023-02-28T04:00:37;99386.50;;;-6.98;63.12
55990;BME280;41875;55.806;38.082;2023-02-28T04:03:08;99375.06;;;-6.90;63.22
55990;BME280;41875;55.806;38.082;2023-02-28T04:05:48;99389.50;;;-7.11;63.44
55990;BME280;41875;55.806;38.082;2023-02-28T04:08:19;99385.19;;;-7.10;63.71
55990;BME280;41875;55.806;38.082;2023-02-28T04:10:51;99377.31;;;-6.80;62.67
55990;BME280;41875;55.806;38.082;2023-02-28T04:13:22;99370.66;;;-6.61;62.17
55990;BME280;41875;55.806;38.082;2023-02-28T04:15:50;99367.41;;;-6.66;62.25
55990;BME280;41875;55.806;38.082;2023-02-28T04:18:19;99362.56;;;-6.75;62.14
55990;BME280;41875;55.806;38.082;2023-02-28T04:20:47;99363.34;;;-6.73;62.41
55990;BME280;41875;55.806;38.082;2023-02-28T04:23:16;99362.47;;;-6.48;61.69
55990;BME280;41875;55.806;38.082;2023-02-28T04:25:46;99357.34;;;-6.24;60.76
55990;BME280;41875;55.806;38.082;2023-02-28T04:28:14;99356.44;;;-6.47;61.20
55990;BME280;41875;55.806;38.082;2023-02-28T04:30:42;99352.84;;;-5.97;59.96
55990;BME280;41875;55.806;38.082;2023-02-28T04:33:11;99351.88;;;-6.40;60.54
55990;BME280;41875;55.806;38.082;2023-02-28T04:35:39;99351.34;;;-6.49;60.69
55990;BME280;41875;55.806;38.082;2023-02-28T04:38:08;99344.19;;;-6.18;60.53
55990;BME280;41875;55.806;38.082;2023-02-28T04:40:36;99344.78;;;-6.34;60.35
55990;BME280;41875;55.806;38.082;2023-02-28T04:43:06;99335.97;;;-6.76;61.83
55990;BME280;41875;55.806;38.082;2023-02-28T04:45:35;99341.91;;;-6.50;61.51
55990;BME280;41875;55.806;38.082;2023-02-28T04:48:03;99335.19;;;-6.06;60.20
55990;BME280;41875;55.806;38.082;2023-02-28T04:50:32;99342.41;;;-6.16;59.49
55990;BME280;41875;55.806;38.082;2023-02-28T04:53:01;99318.47;;;-5.53;58.21
55990;BME280;41875;55.806;38.082;2023-02-28T04:55:29;99315.97;;;-5.34;58.33
55990;BME280;41875;55.806;38.082;2023-02-28T04:57:57;99306.66;;;-5.81;58.84
55990;BME280;41875;55.806;38.082;2023-02-28T05:00:26;99296.72;;;-5.47;57.98
55990;BME280;41875;55.806;38.082;2023-02-28T05:02:55;99300.94;;;-5.45;57.77
55990;BME280;41875;55.806;38.082;2023-02-28T05:05:23;99297.06;;;-5.34;57.79
55990;BME280;41875;55.806;38.082;2023-02-28T05:07:51;99286.03;;;-5.17;56.59
55990;BME280;41875;55.806;38.082;2023-02-28T05:10:20;99274.59;;;-5.12;56.46
55990;BME280;41875;55.806;38.082;2023-02-28T05:12:49;99262.31;;;-4.86;55.88
55990;BME280;41875;55.806;38.082;2023-02-28T05:15:17;99261.75;;;-4.73;55.02
55990;BME280;41875;55.806;38.082;2023-02-28T05:17:46;99253.44;;;-4.80;55.75
55990;BME280;41875;55.806;38.082;2023-02-28T05:20:15;99242.84;;;-4.36;54.06
55990;BME280;41875;55.806;38.082;2023-02-28T05:22:44;99244.56;;;-4.94;54.68
55990;BME280;41875;55.806;38.082;2023-02-28T05:25:16;99224.69;;;-4.17;52.95
55990;BME280;41875;55.806;38.082;2023-02-28T05:27:46;99230.16;;;-4.23;52.98
55990;BME280;41875;55.806;38.082;2023-02-28T05:30:14;99218.34;;;-4.09;54.02
55990;BME280;41875;55.806;38.082;2023-02-28T05:32:42;99204.88;;;-4.35;52.58
55990;BME280;41875;55.806;38.082;2023-02-28T05:35:12;99212.75;;;-4.19;52.16
55990;BME280;41875;55.806;38.082;2023-02-28T05:37:41;99201.81;;;-3.37;50.04
55990;BME280;41875;55.806;38.082;2023-02-28T05:40:09;99211.28;;;-3.53;51.27
55990;BME280;41875;55.806;38.082;2023-02-28T05:42:38;99196.84;;;-3.24;49.20
55990;BME280;41875;55.806;38.082;2023-02-28T05:45:06;99185.75;;;-2.44;49.35
55990;BME280;41875;55.806;38.082;2023-02-28T05:47:35;99189.56;;;-2.83;48.40
55990;BME280;41875;55.806;38.082;2023-02-28T05:50:05;99177.28;;;-2.64;47.36
55990;BME280;41875;55.806;38.082;2023-02-28T05:52:35;99182.47;;;-3.29;48.52
55990;BME280;41875;55.806;38.082;2023-02-28T05:55:05;99171.78;;;-2.89;48.07
55990;BME280;41875;55.806;38.082;2023-02-28T05:57:33;99161.72;;;-2.80;46.99
55990;BME280;41875;55.806;38.082;2023-02-28T06:00:02;99157.13;;;-2.91;47.07
55990;BME280;41875;55.806;38.082;2023-02-28T06:02:38;99147.66;;;-3.41;48.21
55990;BME280;41875;55.806;38.082;2023-02-28T06:05:13;99132.41;;;-3.63;48.18
55990;BME280;41875;55.806;38.082;2023-02-28T06:07:44;99127.47;;;-4.03;49.32
55990;BME280;41875;55.806;38.082;2023-02-28T06:10:13;99131.72;;;-3.67;49.19
55990;BME280;41875;55.806;38.082;2023-02-28T06:12:42;99117.34;;;-3.73;49.15
55990;BME280;41875;55.806;38.082;2023-02-28T06:15:12;99125.13;;;-3.39;47.87
55990;BME280;41875;55.806;38.082;2023-02-28T06:17:42;99095.00;;;-2.92;47.35
55990;BME280;41875;55.806;38.082;2023-02-28T06:20:11;99097.41;;;-3.21;47.51
55990;BME280;41875;55.806;38.082;2023-02-28T06:22:40;99096.25;;;-2.67;46.62
55990;BME280;41875;55.806;38.082;2023-02-28T06:25:11;99085.69;;;-1.44;43.90
55990;BME280;41875;55.806;38.082;2023-02-28T06:27:39;99087.38;;;-1.43;44.35
55990;BME280;41875;55.806;38.082;2023-02-28T06:30:09;99085.91;;;-2.37;45.61
55990;BME280;41875;55.806;38.082;2023-02-28T06:32:37;99097.25;;;-1.93;44.91
55990;BME280;41875;55.806;38.082;2023-02-28T06:35:07;99100.91;;;-2.11;45.37
55990;BME280;41875;55.806;38.082;2023-02-28T06:37:36;99100.22;;;-1.70;45.14
55990;BME280;41875;55.806;38.082;2023-02-28T06:40:09;99105.25;;;-1.52;44.22
55990;BME280;41875;55.806;38.082;2023-02-28T06:42:39;99094.69;;;-1.20;43.95
55990;BME280;41875;55.806;38.082;2023-02-28T06:45:09;99090.25;;;-1.47;44.64
55990;BME280;41875;55.806;38.082;2023-02-28T06:47:38;99071.19;;;-1.77;44.68
55990;BME280;41875;55.806;38.082;2023-02-28T06:50:09;99043.88;;;-1.12;44.05
55990;BME280;41875;55.806;38.082;2023-02-28T06:52:38;99032.53;;;-0.69;44.01
55990;BME280;41875;55.806;38.082;2023-02-28T06:55:07;99032.13;;;-0.90;44.16
55990;BME280;41875;55.806;38.082;2023-02-28T06:57:36;99024.44;;;-0.64;44.09
55990;BME280;41875;55.806;38.082;2023-02-28T07:00:08;99023.44;;;-0.49;45.38
55990;BME280;41875;55.806;38.082;2023-02-28T07:02:37;99010.44;;;-0.23;43.47
55990;BME280;41875;55.806;38.082;2023-02-28T07:05:06;98995.72;;;-0.50;43.81
55990;BME280;41875;55.806;38.082;2023-02-28T07:07:35;99002.41;;;-0.33;42.93
55990;BME280;41875;55.806;38.082;2023-02-28T07:10:06;99009.63;;;-0.77;44.79
55990;BME280;41875;55.806;38.082;2023-02-28T07:12:36;99001.31;;;-0.16;43.29
55990;BME280;41875;55.806;38.082;2023-02-28T07:15:07;98984.50;;;-0.37;44.73
55990;BME280;41875;55.806;38.082;2023-02-28T07:17:36;98991.53;;;-0.65;45.10
55990;BME280;41875;55.806;38.082;2023-02-28T07:20:05;98978.75;;;-0.55;45.56
55990;BME280;41875;55.806;38.082;2023-02-28T07:22:33;98972.41;;;-0.64;45.86
55990;BME280;41875;55.806;38.082;2023-02-28T07:25:01;98962.31;;;-0.30;44.87
55990;BME280;41875;55.806;38.082;2023-02-28T07:27:30;98932.84;;;0.08;44.81
55990;BME280;41875;55.806;38.082;2023-02-28T07:29:58;98939.19;;;0.17;44.71
55990;BME280;41875;55.806;38.082;2023-02-28T07:32:31;98948.47;;;-0.56;45.96
55990;BME280;41875;55.806;38.082;2023-02-28T07:34:59;98943.66;;;-0.63;46.80
55990;BME280;41875;55.806;38.082;2023-02-28T07:37:29;98935.25;;;-0.40;46.16
55990;BME280;41875;55.806;38.082;2023-02-28T07:39:58;98945.56;;;0.13;45.71
55990;BME280;41875;55.806;38.082;2023-02-28T07:42:29;98910.81;;;0.38;44.45
55990;BME280;41875;55.806;38.082;2023-02-28T07:44:57;98942.47;;;1.18;43.88
55990;BME280;41875;55.806;38.082;2023-02-28T07:47:26;98931.63;;;-0.51;46.87
55990;BME280;41875;55.806;38.082;2023-02-28T07:49:56;98941.69;;;-0.59;48.27
55990;BME280;41875;55.806;38.082;2023-02-28T07:52:24;98942.75;;;-0.49;48.60
55990;BME280;41875;55.806;38.082;2023-02-28T07:54:53;98946.59;;;0.10;47.73
55990;BME280;41875;55.806;38.082;2023-02-28T07:57:22;98923.38;;;0.07;47.66
55990;BME280;41875;55.806;38.082;2023-02-28T07:59:51;98946.31;;;0.52;46.93
55990;BME280;41875;55.806;38.082;2023-02-28T08:02:20;98925.22;;;0.80;46.10
55990;BME280;41875;55.806;38.082;2023-02-28T08:04:48;98929.47;;;0.69;46.58
55990;BME280;41875;55.806;38.082;2023-02-28T08:07:18;98913.81;;;-0.18;48.00
55990;BME280;41875;55.806;38.082;2023-02-28T08:09:46;98921.19;;;-0.77;50.05
55990;BME280;41875;55.806;38.082;2023-02-28T08:12:15;98916.84;;;-0.63;50.35
55990;BME280;41875;55.806;38.082;2023-02-28T08:14:44;98902.66;;;-0.20;49.76
55990;BME280;41875;55.806;38.082;2023-02-28T08:17:12;98899.34;;;-0.35;49.99
55990;BME280;41875;55.806;38.082;2023-02-28T08:19:41;98894.03;;;-0.34;50.19
55990;BME280;41875;55.806;38.082;2023-02-28T08:22:09;98874.97;;;0.53;48.83
55990;BME280;41875;55.806;38.082;2023-02-28T08:24:41;98883.75;;;0.28;48.39
55990;BME280;41875;55.806;38.082;2023-02-28T08:27:09;98866.03;;;0.69;47.79
55990;BME280;41875;55.806;38.082;2023-02-28T08:29:38;98869.31;;;0.84;47.82
55990;BME280;41875;55.806;38.082;2023-02-28T08:32:07;98872.34;;;1.02;47.91
55990;BME280;41875;55.806;38.082;2023-02-28T08:34:54;98863.56;;;0.67;48.24
55990;BME280;41875;55.806;38.082;2023-02-28T08:37:23;98893.50;;;-0.26;49.88
55990;BME280;41875;55.806;38.082;2023-02-28T08:39:53;98899.44;;;-1.16;52.59
55990;BME280;41875;55.806;38.082;2023-02-28T08:42:22;98933.44;;;-1.46;54.44
55990;BME280;41875;55.806;38.082;2023-02-28T08:44:51;98917.63;;;-0.75;52.87
55990;BME280;41875;55.806;38.082;2023-02-28T08:47:20;98913.50;;;-0.52;52.71
55990;BME280;41875;55.806;38.082;2023-02-28T08:49:48;98910.09;;;-1.33;53.88
55990;BME280;41875;55.806;38.082;2023-02-28T08:52:17;98903.38;;;-1.92;56.37
55990;BME280;41875;55.806;38.082;2023-02-28T08:54:46;98892.81;;;-1.07;55.62
55990;BME280;41875;55.806;38.082;2023-02-28T08:57:16;98871.59;;;-1.96;58.01
55990;BME280;41875;55.806;38.082;2023-02-28T08:59:45;98900.34;;;-2.42;60.89
55990;BME280;41875;55.806;38.082;2023-02-28T09:02:14;98877.53;;;-2.08;61.12
55990;BME280;41875;55.806;38.082;2023-02-28T09:04:43;98869.44;;;-1.34;58.39
55990;BME280;41875;55.806;38.082;2023-02-28T09:07:12;98881.44;;;-2.45;61.97
55990;BME280;41875;55.806;38.082;2023-02-28T09:09:41;98875.31;;;-2.58;62.22
55990;BME280;41875;55.806;38.082;2023-02-28T09:12:23;98851.03;;;-1.72;59.06
55990;BME280;41875;55.806;38.082;2023-02-28T09:14:52;98854.28;;;-0.87;56.56
55990;BME280;41875;55.806;38.082;2023-02-28T09:17:21;98855.19;;;-1.14;56.44
55990;BME280;41875;55.806;38.082;2023-02-28T09:19:57;98840.56;;;-0.89;55.14
55990;BME280;41875;55.806;38.082;2023-02-28T09:22:25;98843.97;;;-1.02;55.47
55990;BME280;41875;55.806;38.082;2023-02-28T09:24:54;98841.25;;;-1.00;54.86
55990;BME280;41875;55.806;38.082;2023-02-28T09:27:24;98831.63;;;-0.59;54.18
55990;BME280;41875;55.806;38.082;2023-02-28T09:29:56;98848.34;;;-0.89;54.32
55990;BME280;41875;55.806;38.082;2023-02-28T09:32:25;98824.94;;;-0.89;53.94
55990;BME280;41875;55.806;38.082;2023-02-28T09:34:54;98842.19;;;-1.82;56.60
55990;BME280;41875;55.806;38.082;2023-02-28T09:37:22;98841.00;;;-0.70;54.39
55990;BME280;41875;55.806;38.082;2023-02-28T09:39:52;98827.22;;;-0.98;54.41
55990;BME280;41875;55.806;38.082;2023-02-28T09:42:21;98828.53;;;-1.31;55.64
55990;BME280;41875;55.806;38.082;2023-02-28T09:44:53;98819.63;;;-0.49;53.76
55990;BME280;41875;55.806;38.082;2023-02-28T09:47:27;98809.56;;;-0.93;53.80
55990;BME280;41875;55.806;38.082;2023-02-28T09:52:49;98812.50;;;-0.21;52.46
55990;BME280;41875;55.806;38.082;2023-02-28T09:55:22;98815.44;;;-1.70;56.54
55990;BME280;41875;55.806;38.082;2023-02-28T09:57:55;98797.31;;;-1.44;55.66
55990;BME280;41875;55.806;38.082;2023-02-28T10:00:32;98789.16;;;-0.86;54.99
55990;BME280;41875;55.806;38.082;2023-02-28T10:03:10;98776.47;;;-0.65;54.75
55990;BME280;41875;55.806;38.082;2023-02-28T10:05:52;98792.22;;;-1.45;57.15
55990;BME280;41875;55.806;38.082;2023-02-28T10:08:25;98794.53;;;-1.95;58.29
55990;BME280;41875;55.806;38.082;2023-02-28T10:10:57;98776.16;;;-1.12;56.65
55990;BME280;41875;55.806;38.082;2023-02-28T10:13:32;98762.06;;;-0.44;55.34
55990;BME280;41875;55.806;38.082;2023-02-28T10:16:07;98745.06;;;-0.87;55.07
55990;BME280;41875;55.806;38.082;2023-02-28T10:18:42;98750.59;;;-0.92;56.41
55990;BME280;41875;55.806;38.082;2023-02-28T10:21:19;98751.81;;;-0.22;54.01
55990;BME280;41875;55.806;38.082;2023-02-28T10:23:55;98750.50;;;0.21;53.39
55990;BME280;41875;55.806;38.082;2023-02-28T10:26:26;98743.78;;;0.30;52.56
55990;BME280;41875;55.806;38.082;2023-02-28T10:28:58;98734.13;;;0.43;51.93
55990;BME280;41875;55.806;38.082;2023-02-28T10:31:29;98723.81;;;-0.68;55.39
55990;BME280;41875;55.806;38.082;2023-02-28T10:33:58;98720.00;;;-0.01;53.52
55990;BME280;41875;55.806;38.082;2023-02-28T10:36:27;98728.13;;;-0.93;56.03
55990;BME280;41875;55.806;38.082;2023-02-28T10:38:57;98721.59;;;-0.99;56.24
55990;BME280;41875;55.806;38.082;2023-02-28T10:41:29;98731.13;;;-1.12;56.76
55990;BME280;41875;55.806;38.082;2023-02-28T10:44:13;98747.22;;;-0.18;54.41
55990;BME280;41875;55.806;38.082;2023-02-28T10:46:45;98725.22;;;-0.38;54.87
55990;BME280;41875;55.806;38.082;2023-02-28T10:49:22;98737.41;;;-0.39;53.91
55990;BME280;41875;55.806;38.082;2023-02-28T10:51:53;98736.53;;;-0.89;55.89
55990;BME280;41875;55.806;38.082;2023-02-28T10:54:27;98726.56;;;-0.96;56.32
55990;BME280;41875;55.806;38.082;2023-02-28T10:57:12;98719.47;;;-1.58;58.39
55990;BME280;41875;55.806;38.082;2023-02-28T10:59:44;98703.41;;;-2.18;59.81
55990;BME280;41875;55.806;38.082;2023-02-28T11:02:34;98716.28;;;-1.10;59.03
55990;BME280;41875;55.806;38.082;2023-02-28T11:05:27;98717.16;;;-0.59;57.17
55990;BME280;41875;55.806;38.082;2023-02-28T11:07:58;98708.16;;;-0.18;55.11
55990;BME280;41875;55.806;38.082;2023-02-28T11:10:31;98710.28;;;-0.60;56.13
55990;BME280;41875;55.806;38.082;2023-02-28T11:13:02;98705.00;;;-0.10;55.19
55990;BME280;41875;55.806;38.082;2023-02-28T11:15:33;98714.16;;;-0.05;55.29
55990;BME280;41875;55.806;38.082;2023-02-28T11:18:20;98708.28;;;0.05;54.55
55990;BME280;41875;55.806;38.082;2023-02-28T11:20:51;98694.81;;;-0.75;57.91
55990;BME280;41875;55.806;38.082;2023-02-28T11:23:24;98689.47;;;-0.60;57.78
55990;BME280;41875;55.806;38.082;2023-02-28T11:25:57;98688.59;;;-0.85;57.48
55990;BME280;41875;55.806;38.082;2023-02-28T11:28:29;98694.44;;;-1.08;60.20
55990;BME280;41875;55.806;38.082;2023-02-28T11:31:02;98711.84;;;-0.21;56.77
55990;BME280;41875;55.806;38.082;2023-02-28T11:33:40;98686.72;;;-0.46;57.40
55990;BME280;41875;55.806;38.082;2023-02-28T11:36:11;98688.75;;;-0.25;57.99
55990;BME280;41875;55.806;38.082;2023-02-28T11:38:41;98692.69;;;-1.33;60.77
55990;BME280;41875;55.806;38.082;2023-02-28T11:41:23;98692.72;;;-0.33;59.01
55990;BME280;41875;55.806;38.082;2023-02-28T11:44:05;98678.84;;;0.51;57.24
55990;BME280;41875;55.806;38.082;2023-02-28T11:46:41;98674.88;;;-0.02;58.78
55990;BME280;41875;55.806;38.082;2023-02-28T11:49:23;98668.84;;;0.34;57.72
55990;BME280;41875;55.806;38.082;2023-02-28T11:52:00;98682.66;;;0.23;57.98
55990;BME280;41875;55.806;38.082;2023-02-28T11:54:40;98682.97;;;-0.42;59.84
55990;BME280;41875;55.806;38.082;2023-02-28T11:57:30;98676.56;;;0.11;59.96
55990;BME280;41875;55.806;38.082;2023-02-28T12:00:19;98677.78;;;0.65;58.42
55990;BME280;41875;55.806;38.082;2023-02-28T12:03:34;98665.19;;;-0.48;61.34
55990;BME280;41875;55.806;38.082;2023-02-28T12:06:15;98662.22;;;0.05;60.74
55990;BME280;41875;55.806;38.082;2023-02-28T12:08:52;98659.50;;;0.42;59.24
55990;BME280;41875;55.806;38.082;2023-02-28T12:11:33;98655.59;;;0.37;59.36
55990;BME280;41875;55.806;38.082;2023-02-28T12:17:06;98653.69;;;0.39;57.83
55990;BME280;41875;55.806;38.082;2023-02-28T12:19:48;98644.97;;;0.15;59.21
55990;BME280;41875;55.806;38.082;2023-02-28T12:22:28;98646.69;;;-0.08;59.53
55990;BME280;41875;55.806;38.082;2023-02-28T12:25:35;98654.41;;;0.41;58.77
55990;BME280;41875;55.806;38.082;2023-02-28T12:28:09;98658.66;;;0.30;57.86
55990;BME280;41875;55.806;38.082;2023-02-28T12:30:42;98654.88;;;-0.87;60.69
55990;BME280;41875;55.806;38.082;2023-02-28T12:33:17;98657.03;;;-0.43;60.21
55990;BME280;41875;55.806;38.082;2023-02-28T12:35:52;98647.06;;;-0.01;58.71
55990;BME280;41875;55.806;38.082;2023-02-28T12:38:27;98641.50;;;-0.08;59.35
55990;BME280;41875;55.806;38.082;2023-02-28T12:41:00;98639.00;;;0.02;59.80
55990;BME280;41875;55.806;38.082;2023-02-28T12:43:34;98632.81;;;0.27;58.67
55990;BME280;41875;55.806;38.082;2023-02-28T12:46:10;98630.16;;;-0.55;61.61
55990;BME280;41875;55.806;38.082;2023-02-28T12:48:44;98609.56;;;-0.58;61.66
55990;BME280;41875;55.806;38.082;2023-02-28T12:51:16;98596.66;;;0.00;59.58
55990;BME280;41875;55.806;38.082;2023-02-28T12:54:04;98576.25;;;-0.53;61.84
55990;BME280;41875;55.806;38.082;2023-02-28T12:56:43;98582.31;;;-0.06;60.40
55990;BME280;41875;55.806;38.082;2023-02-28T12:59:19;98585.41;;;-0.01;60.03
55990;BME280;41875;55.806;38.082;2023-02-28T13:02:12;98579.84;;;0.04;58.97
55990;BME280;41875;55.806;38.082;2023-02-28T13:08:04;98563.72;;;-0.12;60.36
55990;BME280;41875;55.806;38.082;2023-02-28T13:10:44;98557.13;;;-1.27;63.35
55990;BME280;41875;55.806;38.082;2023-02-28T13:13:17;98570.31;;;-0.55;62.39
55990;BME280;41875;55.806;38.082;2023-02-28T13:15:58;98548.88;;;-0.59;62.71
55990;BME280;41875;55.806;38.082;2023-02-28T13:18:31;98559.22;;;-0.10;60.96
55990;BME280;41875;55.806;38.082;2023-02-28T13:21:00;98570.13;;;-0.05;60.17
55990;BME280;41875;55.806;38.082;2023-02-28T13:23:41;98555.03;;;0.23;60.19
55990;BME280;41875;55.806;38.082;2023-02-28T13:29:38;98551.09;;;-0.41;61.87
55990;BME280;41875;55.806;38.082;2023-02-28T13:32:41;98549.00;;;-0.25;62.17
55990;BME280;41875;55.806;38.082;2023-02-28T13:35:15;98545.09;;;0.28;59.88
55990;BME280;41875;55.806;38.082;2023-02-28T13:38:24;98528.75;;;0.14;59.98